• Join FlightAware (Why Join?)
  • Login
  • US Flag 
07:44AM EDT


 

Airport Tracker/Info


-or-


 

Live Flight TrackerFlight Track Log ✈ EGF2785 ✈ 18-Jun-2013 ✈ KORD - KGRR

Flight Track Log - Related Links

Times and Time Zones

All times are in EDT time to prevent confusion due to time zone crossing. See the EGF2785 flight status page for this flight to view local times or setup timezone preferences in your user account.

Time Position Orientation Groundspeed Altitude Reporting Facility
EDT Latitude Longitude Course Direction KTS MPH feet Rate Location/Type
06:27PM 42.0000 -87.8333 66° East 196 226 3,200  Level Chicago TRACON
06:27PM 42.0033 -87.7992 83° East 202 232 3,700 1,200 Climbing Chicago Center
06:29PM 42.0856 -87.5616 59° Northeast  Level FlightAware Approximate
06:29PM 42.0064 -87.7042 87° East 227 261 5,100  Level Chicago Center
06:30PM 42.1348 -87.4509 59° Northeast  Level FlightAware Approximate
06:30PM 42.0372 -87.6094 66° East 272 313 7,400  Level Chicago Center
06:31PM 42.1772 -87.3352 66° East  Level FlightAware Approximate
06:31PM 42.0875 -87.5000 58° Northeast 287 330 10,100  Level Chicago Center
06:32PM 42.2102 -87.2362 66° East  Level FlightAware Approximate
06:32PM 42.1294 -87.4044 59° Northeast 298 343 11,900  Level Chicago Center
06:33PM 42.1778 -87.2961 59° Northeast 337 388 12,400 660 Climbing Chicago Center
06:34PM 42.2300 -87.1769 59° Northeast 368 423 13,300 1,020 Climbing Chicago Center
06:35PM 42.2803 -87.0536 61° Northeast 376 433 14,600 780 Climbing Chicago Center
06:36PM 42.3319 -86.9086 64° Northeast 396 456 15,000 180 Climbing Chicago Center
06:37PM 42.3856 -86.7778 61° Northeast 399 459 15,000  Level Chicago Center
06:38PM 42.4400 -86.6444 61° Northeast 406 467 15,000 -300 Level Chicago Center
06:39PM 42.5028 -86.4875 61° Northeast 399 459 14,500 -780 Descending Chicago Center
06:40PM 42.5550 -86.3564 62° Northeast 396 456 13,400 -1,380 Descending Chicago Center
06:41PM 42.6050 -86.2311 61° Northeast 387 445 11,700 -1,440 Descending Chicago Center
06:42PM 42.6500 -86.1164 62° Northeast 361 415 10,400 -1,380 Descending Chicago Center
06:43PM 42.6931 -86.0242 58° Northeast 306 352 8,900 -1,680 Descending Chicago Center
06:44PM 42.7356 -85.9356 57° Northeast 287 330 7,000 -1,800 Descending Chicago Center
06:45PM 42.7850 -85.8364 56° Northeast 272 313 5,200 -1,680 Descending Chicago Center
06:46PM 42.8206 -85.7575 58° Northeast 254 292 3,600 -1,260 Descending Chicago Center
06:47PM 42.8525 -85.6825 60° Northeast 242 278 2,600 -840 Descending Chicago Center
06:48PM 42.8675 -85.6208 72° East 197 227 1,900 -720 Descending Chicago Center